Time;durP1;ratioP1;P1;durP2;ratioP2;P2;SDS_P1;SDS_P2;PMS_P1;PMS_P2;Temp;Humidity;BMP_temperature;BMP_pressure;BME280_temperature;BME280_humidity;BME280_pressure;Samples;Min_cycle;Max_cycle;Signal;HPM_P1;HPM_P2
2022/08/14 00:02:05;;;;;;;;;;;;;;;22.58;70.74;99753.97;125796;1098;104166;-77
2022/08/14 00:04:36;;;;;;;;;;;;;;;22.56;71.05;99753.14;124971;1099;104156;-78
2022/08/14 00:07:06;;;;;;;;;;;;;;;22.56;70.80;99746.89;124892;1099;104160;-78
2022/08/14 00:09:36;;;;;;;;;;;;;;;22.52;71.22;99746.11;125320;1099;101838;-78
2022/08/14 00:12:07;;;;;;;;;;;;;;;22.49;70.69;99748.85;124844;1099;104247;-79
2022/08/14 00:14:37;;;;;;;;;;;;;;;22.44;71.25;99751.64;124982;1099;102871;-79
2022/08/14 00:17:07;;;;;;;;;;;;;;;22.40;71.62;99754.43;124906;1099;104179;-78
2022/08/14 00:19:37;;;;;;;;;;;;;;;22.37;71.50;99749.16;124919;1099;104225;-79
2022/08/14 00:22:07;;;;;;;;;;;;;;;22.35;72.14;99759.02;124857;1099;104338;-80
2022/08/14 00:24:39;;;;;;;;;;;;;;;22.31;72.12;99760.00;125736;1099;104366;-79
2022/08/14 00:27:09;;;;;;;;;;;;;;;22.25;71.80;99761.88;125850;1099;102639;-79
2022/08/14 00:29:39;;;;;;;;;;;;;;;22.22;71.72;99764.63;125794;1099;102145;-79
2022/08/14 00:32:08;;;;;;;;;;;;;;;22.20;72.60;99765.56;125821;1099;104188;-80
2022/08/14 00:34:40;;;;;;;;;;;;;;;22.13;71.92;99753.25;125329;1099;104309;-80
2022/08/14 00:37:10;;;;;;;;;;;;;;;22.16;72.23;99766.54;125653;1099;104653;-79
2022/08/14 00:39:40;;;;;;;;;;;;;;;22.15;72.14;99771.02;125176;1098;102618;-79
2022/08/14 00:42:10;;;;;;;;;;;;;;;22.12;72.60;99757.73;125124;1099;104185;-78
2022/08/14 00:44:40;;;;;;;;;;;;;;;22.07;72.18;99756.97;124900;1099;104232;-79
2022/08/14 00:47:09;;;;;;;;;;;;;;;21.99;72.79;99754.48;124901;1099;104357;-78
2022/08/14 00:49:39;;;;;;;;;;;;;;;21.93;72.81;99751.95;124472;1099;104208;-78
2022/08/14 00:52:09;;;;;;;;;;;;;;;21.87;73.88;99750.28;124895;1099;104239;-79
2022/08/14 00:54:39;;;;;;;;;;;;;;;21.84;73.52;99749.48;124802;1099;102910;-79
2022/08/14 00:57:08;;;;;;;;;;;;;;;21.81;73.43;99750.42;124914;1099;104310;-79
2022/08/14 00:59:38;;;;;;;;;;;;;;;21.77;73.19;99743.41;124972;1099;101847;-78
2022/08/14 01:02:09;;;;;;;;;;;;;;;21.75;73.39;99741.67;124883;1099;104184;-78
2022/08/14 01:04:38;;;;;;;;;;;;;;;21.71;73.39;99740.88;124828;1099;104235;-78
2022/08/14 01:07:08;;;;;;;;;;;;;;;21.68;73.98;99732.94;124432;1099;104225;-78
2022/08/14 01:09:38;;;;;;;;;;;;;;;21.65;73.74;99736.53;124837;1099;104169;-79
2022/08/14 01:12:12;;;;;;;;;;;;;;;21.62;74.61;99744.61;125742;1098;104165;-80
2022/08/14 01:14:42;;;;;;;;;;;;;;;21.60;74.41;99738.44;125885;1099;104191;-80
2022/08/14 01:17:11;;;;;;;;;;;;;;;21.59;74.62;99743.81;125712;1099;104169;-80
2022/08/14 01:22:45;;;;;;;;;;;;;;;21.56;75.03;99733.20;125071;1102;101893;-80
2022/08/14 01:25:15;;;;;;;;;;;;;;;21.54;73.80;99730.56;124390;1102;104226;-79
2022/08/14 01:27:45;;;;;;;;;;;;;;;21.50;74.66;99732.43;125369;1099;104197;-79
2022/08/14 01:30:15;;;;;;;;;;;;;;;21.46;74.94;99721.81;125797;1099;104197;-79
2022/08/14 01:32:45;;;;;;;;;;;;;;;21.43;75.26;99720.08;125763;1098;104172;-80
2022/08/14 01:35:14;;;;;;;;;;;;;;;21.40;74.15;99724.62;125842;1098;104169;-80
2022/08/14 01:37:45;;;;;;;;;;;;;;;21.38;75.26;99721.98;125342;1099;104095;-80
2022/08/14 01:40:15;;;;;;;;;;;;;;;21.35;75.33;99722.91;125752;1099;102059;-79
2022/08/14 01:42:45;;;;;;;;;;;;;;;21.33;75.02;99711.40;125081;1099;104201;-79
2022/08/14 01:45:14;;;;;;;;;;;;;;;21.32;74.46;99719.44;125050;1099;104179;-79
2022/08/14 01:47:44;;;;;;;;;;;;;;;21.30;75.49;99731.91;125174;1099;104230;-79
2022/08/14 01:50:15;;;;;;;;;;;;;;;21.29;74.70;99725.70;125763;1099;104174;-79
2022/08/14 01:52:45;;;;;;;;;;;;;;;21.28;75.51;99718.60;125173;1099;102297;-79
2022/08/14 01:55:16;;;;;;;;;;;;;;;21.30;74.82;99723.91;125085;1099;102974;-79
2022/08/14 01:57:46;;;;;;;;;;;;;;;21.28;74.97;99718.60;125679;1099;104166;-79
2022/08/14 02:00:17;;;;;;;;;;;;;;;21.26;74.89;99724.91;125188;1099;104242;-79
2022/08/14 02:02:47;;;;;;;;;;;;;;;21.22;76.18;99720.52;125240;1099;104163;-78
2022/08/14 02:05:16;;;;;;;;;;;;;;;21.17;76.06;99716.15;124940;1099;104194;-79
2022/08/14 02:07:46;;;;;;;;;;;;;;;21.14;75.30;99720.68;125185;1098;102765;-79
2022/08/14 02:10:16;;;;;;;;;;;;;;;21.12;75.63;99722.52;125174;1099;104256;-79
2022/08/14 02:12:47;;;;;;;;;;;;;;;21.11;75.82;99716.27;125114;1098;102778;-80
2022/08/14 02:15:20;;;;;;;;;;;;;;;21.10;75.42;99718.97;125084;1099;104175;-80
2022/08/14 02:17:50;;;;;;;;;;;;;;;21.07;76.21;99719.06;125302;1099;104217;-79
2022/08/14 02:20:20;;;;;;;;;;;;;;;21.05;76.39;99720.86;124528;1099;104277;-79
2022/08/14 02:22:52;;;;;;;;;;;;;;;21.00;76.12;99724.52;125006;1098;102759;-80
2022/08/14 02:25:21;;;;;;;;;;;;;;;20.96;76.98;99728.14;125763;1099;104243;-80
2022/08/14 02:27:54;;;;;;;;;;;;;;;20.94;75.98;99710.40;125158;1099;104229;-79
2022/08/14 02:30:25;;;;;;;;;;;;;;;20.91;76.49;99722.03;125772;1099;104187;-77
2022/08/14 02:32:56;;;;;;;;;;;;;;;20.88;76.48;99721.19;124901;1099;104242;-79
2022/08/14 02:35:26;;;;;;;;;;;;;;;20.86;76.84;99731.88;125198;1099;104246;-78
2022/08/14 02:37:56;;;;;;;;;;;;;;;20.86;77.48;99720.34;124422;1099;102698;-79
2022/08/14 02:40:26;;;;;;;;;;;;;;;20.83;76.98;99722.17;124925;1099;102320;-79
2022/08/14 02:42:57;;;;;;;;;;;;;;;20.82;76.64;99719.53;124921;1099;104325;-77
2022/08/14 02:45:27;;;;;;;;;;;;;;;20.78;77.48;99720.48;124948;1099;101881;-79
2022/08/14 02:47:57;;;;;;;;;;;;;;;20.75;77.48;99723.20;124833;1098;104235;-79
2022/08/14 02:50:27;;;;;;;;;;;;;;;20.74;77.86;99718.77;124949;1099;104268;-79
2022/08/14 02:52:57;;;;;;;;;;;;;;;20.74;77.34;99721.44;124947;1099;104236;-79
2022/08/14 02:55:27;;;;;;;;;;;;;;;20.74;77.08;99722.34;124916;1099;104172;-79
2022/08/14 02:57:57;;;;;;;;;;;;;;;20.74;77.31;99727.67;125723;1099;102807;-78
2022/08/14 03:00:27;;;;;;;;;;;;;;;20.72;77.93;99725.93;125709;1099;104152;-78
2022/08/14 03:02:57;;;;;;;;;;;;;;;20.71;78.22;99729.49;125858;1099;104152;-78
2022/08/14 03:05:29;;;;;;;;;;;;;;;20.74;78.37;99721.44;125744;1099;104206;-79
2022/08/14 03:08:06;;;;;;;;;;;;;;;20.77;77.50;99716.95;125758;1099;102349;-78
2022/08/14 03:10:35;;;;;;;;;;;;;;;20.77;77.62;99716.05;125758;1099;119750;-78
2022/08/14 03:13:05;;;;;;;;;;;;;;;20.73;77.87;99715.23;125749;1099;104070;-78
2022/08/14 03:15:37;;;;;;;;;;;;;;;20.72;77.27;99725.93;125814;1099;104185;-78
2022/08/14 03:18:11;;;;;;;;;;;;;;;20.70;78.82;99725.09;125765;1099;104171;-78
2022/08/14 03:20:41;;;;;;;;;;;;;;;20.65;78.82;99728.70;124956;1099;102771;-78
2022/08/14 03:23:10;;;;;;;;;;;;;;;20.65;77.83;99723.38;124891;1099;104160;-78
2022/08/14 03:25:40;;;;;;;;;;;;;;;20.65;78.83;99727.84;124803;1098;102202;-78
2022/08/14 03:28:11;;;;;;;;;;;;;;;20.64;78.79;99739.36;124940;1099;104258;-79
2022/08/14 03:30:40;;;;;;;;;;;;;;;20.62;78.38;99730.52;124894;1099;104204;-78
2022/08/14 03:33:11;;;;;;;;;;;;;;;20.62;78.92;99720.73;124928;1099;102836;-80
2022/08/14 03:35:42;;;;;;;;;;;;;;;20.63;78.66;99724.27;124928;1099;104160;-80
2022/08/14 03:38:12;;;;;;;;;;;;;;;20.63;78.85;99725.16;124865;1098;102756;-78
2022/08/14 03:40:43;;;;;;;;;;;;;;;20.62;79.40;99727.86;125016;1099;104216;-78
2022/08/14 03:43:12;;;;;;;;;;;;;;;20.62;78.97;99736.72;125764;1099;102025;-78
2022/08/14 03:45:43;;;;;;;;;;;;;;;20.62;79.08;99725.19;125792;1098;104195;-78
2022/08/14 03:48:18;;;;;;;;;;;;;;;20.64;79.84;99731.36;124823;1099;104245;-78
2022/08/14 03:50:50;;;;;;;;;;;;;;;20.64;79.93;99726.94;124867;1099;104394;-79
2022/08/14 03:53:20;;;;;;;;;;;;;;;20.67;80.30;99725.14;124952;1099;104163;-78
2022/08/14 03:55:50;;;;;;;;;;;;;;;20.70;79.39;99725.09;124956;1099;104169;-79
2022/08/14 03:58:19;;;;;;;;;;;;;;;20.72;79.42;99724.13;124893;1099;102344;-79
2022/08/14 04:00:49;;;;;;;;;;;;;;;20.73;79.37;99719.70;124887;1098;104259;-79
2022/08/14 04:03:20;;;;;;;;;;;;;;;20.75;80.23;99713.41;124893;1099;104313;-79
2022/08/14 04:05:50;;;;;;;;;;;;;;;20.76;79.60;99719.65;124884;1099;104057;-80
2022/08/14 04:08:19;;;;;;;;;;;;;;;20.76;79.01;99720.52;124939;1099;104245;-79
2022/08/14 04:10:49;;;;;;;;;;;;;;;20.79;80.53;99714.26;125003;1099;104208;-79
2022/08/14 04:13:19;;;;;;;;;;;;;;;20.82;79.88;99711.53;124904;1099;104157;-79
2022/08/14 04:15:49;;;;;;;;;;;;;;;20.85;80.40;99713.24;124885;1099;104160;-79
2022/08/14 04:18:19;;;;;;;;;;;;;;;20.88;80.18;99716.75;124823;1098;104683;-78
2022/08/14 04:20:49;;;;;;;;;;;;;;;20.89;79.73;99712.28;124911;1099;104194;-79
2022/08/14 04:23:19;;;;;;;;;;;;;;;20.91;80.94;99715.80;124891;1099;104214;-78
2022/08/14 04:25:51;;;;;;;;;;;;;;;20.92;80.66;99718.43;124968;1099;104347;-79
2022/08/14 04:28:21;;;;;;;;;;;;;;;20.95;81.22;99722.84;125722;1099;104168;-79
2022/08/14 04:30:51;;;;;;;;;;;;;;;20.97;81.59;99713.01;125833;1099;101797;-79
2022/08/14 04:33:23;;;;;;;;;;;;;;;21.01;79.68;99704.92;125527;1099;104162;-78
2022/08/14 04:35:52;;;;;;;;;;;;;;;21.05;80.98;99704.86;125150;1098;102724;-81
2022/08/14 04:43:57;;;;;;;;;;;;;;;21.25;80.69;99696.45;125037;1099;102813;-78
2022/08/14 04:46:28;;;;;;;;;;;;;;;21.31;81.00;99693.66;125042;1099;104235;-79
2022/08/14 04:48:57;;;;;;;;;;;;;;;21.35;80.13;99690.89;125045;1099;104264;-78
2022/08/14 04:51:28;;;;;;;;;;;;;;;21.42;81.19;99694.30;124983;1099;103038;-79
2022/08/14 04:53:59;;;;;;;;;;;;;;;21.47;80.88;99695.09;125000;1099;102893;-79
2022/08/14 04:56:29;;;;;;;;;;;;;;;21.56;81.04;99695.83;124928;1099;102194;-79
2022/08/14 04:59:03;;;;;;;;;;;;;;;21.64;80.84;99707.20;124934;1099;102417;-79
2022/08/14 05:01:35;;;;;;;;;;;;;;;21.70;81.96;99709.73;125848;1099;101772;-79
2022/08/14 05:04:06;;;;;;;;;;;;;;;21.77;82.40;99706.03;125743;1099;104188;-78
2022/08/14 05:06:37;;;;;;;;;;;;;;;21.83;81.77;99704.98;125829;1099;104238;-79
2022/08/14 05:09:07;;;;;;;;;;;;;;;21.88;81.79;99720.00;124884;1099;104303;-79
2022/08/14 05:11:37;;;;;;;;;;;;;;;21.95;81.92;99711.84;125277;1099;104226;-79
2022/08/14 05:14:06;;;;;;;;;;;;;;;22.00;80.93;99713.50;125797;1099;104197;-79
2022/08/14 05:16:36;;;;;;;;;;;;;;;22.05;81.27;99710.73;125805;1099;102759;-79
2022/08/14 05:19:07;;;;;;;;;;;;;;;22.10;81.49;99710.61;125854;1099;104093;-79
2022/08/14 05:21:37;;;;;;;;;;;;;;;22.16;81.85;99711.34;125012;1099;102870;-79
2022/08/14 05:24:08;;;;;;;;;;;;;;;22.23;80.71;99704.03;125706;1099;104163;-79
2022/08/14 05:26:41;;;;;;;;;;;;;;;22.29;81.38;99706.55;125807;1099;104179;-78
2022/08/14 05:29:10;;;;;;;;;;;;;;;22.33;80.94;99712.72;125827;1099;104166;-79
2022/08/14 05:31:40;;;;;;;;;;;;;;;22.41;80.84;99705.41;124936;1099;102806;-79
2022/08/14 05:34:10;;;;;;;;;;;;;;;22.44;81.35;99702.66;124952;1098;104214;-79
2022/08/14 05:36:41;;;;;;;;;;;;;;;22.52;81.38;99705.14;125814;1099;102187;-79
2022/08/14 05:39:10;;;;;;;;;;;;;;;22.59;81.12;99704.94;125767;1099;104698;-78
2022/08/14 05:41:40;;;;;;;;;;;;;;;22.65;81.43;99693.18;125787;1097;103000;-79
2022/08/14 05:44:10;;;;;;;;;;;;;;;22.73;81.05;99692.98;125812;1098;104220;-79
2022/08/14 05:46:40;;;;;;;;;;;;;;;22.79;81.14;99687.46;125806;1099;104171;-79
2022/08/14 05:49:10;;;;;;;;;;;;;;;22.85;81.20;99689.10;125734;1099;104615;-79
2022/08/14 05:51:40;;;;;;;;;;;;;;;22.91;81.29;99695.14;125747;1099;102736;-79
2022/08/14 05:54:10;;;;;;;;;;;;;;;22.97;80.82;99676.25;125860;1099;104370;-79
2022/08/14 05:56:39;;;;;;;;;;;;;;;23.04;80.90;99684.10;125717;1098;104310;-79
2022/08/14 05:59:11;;;;;;;;;;;;;;;23.11;80.96;99683.92;125768;1099;102800;-79
2022/08/14 06:01:40;;;;;;;;;;;;;;;23.17;80.58;99677.52;125839;1099;104169;-79
2022/08/14 06:04:10;;;;;;;;;;;;;;;23.24;80.63;99679.08;125799;1099;104194;-79
2022/08/14 06:06:40;;;;;;;;;;;;;;;23.31;80.43;99677.98;125812;1097;102326;-79
2022/08/14 06:09:09;;;;;;;;;;;;;;;23.40;80.51;99681.30;125802;1099;104165;-79
2022/08/14 06:11:39;;;;;;;;;;;;;;;23.48;80.29;99677.47;124967;1098;102755;-79
2022/08/14 06:14:09;;;;;;;;;;;;;;;23.59;80.37;99686.96;124975;1099;102517;-79
2022/08/14 06:16:41;;;;;;;;;;;;;;;23.66;80.25;99689.40;125860;1099;104158;-79
2022/08/14 06:19:11;;;;;;;;;;;;;;;23.75;80.18;99684.67;125757;1099;104159;-79
2022/08/14 06:21:41;;;;;;;;;;;;;;;23.84;79.83;99687.09;125756;1099;104175;-79
2022/08/14 06:24:10;;;;;;;;;;;;;;;23.91;79.84;99683.30;125817;1099;104166;-79
2022/08/14 06:26:40;;;;;;;;;;;;;;;24.00;79.58;99690.18;125805;1099;104184;-79
2022/08/14 06:29:10;;;;;;;;;;;;;;;24.09;79.37;99689.88;125870;1099;104206;-80
2022/08/14 06:31:40;;;;;;;;;;;;;;;24.17;78.75;99684.27;125827;1099;104194;-79
2022/08/14 06:34:09;;;;;;;;;;;;;;;24.25;78.15;99687.56;125777;1099;104270;-79
2022/08/14 06:36:39;;;;;;;;;;;;;;;24.34;78.66;99689.93;125851;1099;104178;-80
2022/08/14 06:39:09;;;;;;;;;;;;;;;24.44;78.49;99692.30;125845;1099;102110;-80
2022/08/14 06:41:40;;;;;;;;;;;;;;;24.50;77.75;99684.05;125873;1098;104304;-79
2022/08/14 06:44:10;;;;;;;;;;;;;;;24.62;77.67;99688.12;125778;1099;102778;-79
2022/08/14 06:46:40;;;;;;;;;;;;;;;24.76;76.92;99685.81;125772;1099;104201;-79
2022/08/14 06:49:13;;;;;;;;;;;;;;;24.90;76.84;99691.58;125914;1099;104156;-78
2022/08/14 06:51:45;;;;;;;;;;;;;;;25.04;77.11;99691.08;125751;1099;104184;-79
2022/08/14 06:54:15;;;;;;;;;;;;;;;25.17;76.93;99688.81;125911;1098;104163;-80
2022/08/14 06:56:44;;;;;;;;;;;;;;;25.25;77.12;99696.57;125799;1099;104172;-78
2022/08/14 06:59:15;;;;;;;;;;;;;;;25.33;76.02;99701.69;125765;1098;104195;-79
2022/08/14 07:07:23;;;;;;;;;;;;;;;25.63;75.80;99694.23;125041;1099;102810;-79
2022/08/14 07:09:52;;;;;;;;;;;;;;;25.83;75.42;99691.62;124896;1099;104775;-79
2022/08/14 07:12:22;;;;;;;;;;;;;;;25.97;75.35;99699.17;124867;1100;102806;-79
2022/08/14 07:14:52;;;;;;;;;;;;;;;26.05;74.27;99703.37;124941;1099;101892;-79
2022/08/14 07:17:21;;;;;;;;;;;;;;;26.18;73.68;99699.25;125765;1099;104580;-79
2022/08/14 07:19:51;;;;;;;;;;;;;;;26.35;73.62;99691.34;125830;1098;104184;-79
2022/08/14 07:22:21;;;;;;;;;;;;;;;26.48;72.50;99691.69;125839;1099;104211;-79
2022/08/14 07:24:50;;;;;;;;;;;;;;;26.60;72.04;99684.91;125725;1098;104188;-79
2022/08/14 07:27:20;;;;;;;;;;;;;;;26.75;73.54;99680.69;125864;1099;104246;-79
2022/08/14 07:29:50;;;;;;;;;;;;;;;26.84;70.75;99677.59;125042;1099;104291;-79
2022/08/14 07:32:20;;;;;;;;;;;;;;;27.02;71.31;99683.08;124967;1099;102216;-79
2022/08/14 07:34:50;;;;;;;;;;;;;;;27.07;71.40;99681.08;124744;1099;104156;-79
2022/08/14 07:37:20;;;;;;;;;;;;;;;27.14;68.95;99678.97;125021;1099;104323;-80
2022/08/14 07:39:50;;;;;;;;;;;;;;;27.14;69.69;99676.27;125796;1099;104177;-79
2022/08/14 07:42:19;;;;;;;;;;;;;;;27.11;68.98;99671.03;125893;1099;102788;-79
2022/08/14 07:44:49;;;;;;;;;;;;;;;27.05;69.35;99677.55;125304;1099;103310;-79
2022/08/14 07:47:19;;;;;;;;;;;;;;;27.09;68.97;99669.27;125777;1099;104169;-80
2022/08/14 07:49:54;;;;;;;;;;;;;;;27.23;68.72;99676.71;125821;1098;102192;-81
2022/08/14 07:52:24;;;;;;;;;;;;;;;27.48;68.44;99675.60;125760;1099;102845;-80
2022/08/14 07:54:55;;;;;;;;;;;;;;;27.71;69.25;99669.11;125269;1099;104233;-80
2022/08/14 07:57:26;;;;;;;;;;;;;;;27.94;66.30;99667.09;124907;1099;104281;-80
2022/08/14 07:59:56;;;;;;;;;;;;;;;28.13;65.73;99656.31;125812;1098;104280;-79
2022/08/14 08:02:27;;;;;;;;;;;;;;;28.34;66.86;99659.73;125742;1099;104168;-79
2022/08/14 08:04:59;;;;;;;;;;;;;;;28.44;66.74;99661.02;125804;1099;104193;-79
2022/08/14 08:07:30;;;;;;;;;;;;;;;28.50;65.51;99662.50;125908;1098;102227;-80
2022/08/14 08:10:00;;;;;;;;;;;;;;;28.52;65.83;99657.92;125872;1099;104233;-80
2022/08/14 08:12:31;;;;;;;;;;;;;;;28.63;66.25;99658.25;125827;1099;104223;-80
2022/08/14 08:15:01;;;;;;;;;;;;;;;28.65;63.98;99660.88;125763;1099;104217;-80
2022/08/14 08:17:31;;;;;;;;;;;;;;;28.62;63.25;99650.23;125856;1099;104191;-79
2022/08/14 08:20:01;;;;;;;;;;;;;;;28.72;64.38;99646.11;125857;1098;104178;-81
2022/08/14 08:22:30;;;;;;;;;;;;;;;28.84;65.58;99648.16;125819;1099;104239;-79
2022/08/14 08:25:00;;;;;;;;;;;;;;;28.91;63.29;99629.79;125729;1098;104002;-80
2022/08/14 08:27:30;;;;;;;;;;;;;;;29.01;64.15;99630.15;125763;1099;104175;-79
2022/08/14 08:30:07;;;;;;;;;;;;;;;29.06;63.47;99630.77;125813;1099;104240;-79
2022/08/14 08:32:41;;;;;;;;;;;;;;;29.12;63.07;99630.42;125777;1099;102785;-81
2022/08/14 08:35:19;;;;;;;;;;;;;;;29.17;62.97;99630.17;125823;1099;102864;-80
2022/08/14 08:37:49;;;;;;;;;;;;;;;29.29;63.02;99625.97;125829;1099;102717;-79
2022/08/14 08:40:26;;;;;;;;;;;;;;;29.38;61.76;99622.75;125741;1099;104189;-79
2022/08/14 08:42:56;;;;;;;;;;;;;;;29.43;61.34;99626.05;125810;1099;104194;-79
2022/08/14 08:45:26;;;;;;;;;;;;;;;29.48;61.59;99628.49;125717;1099;104252;-80
2022/08/14 08:47:56;;;;;;;;;;;;;;;29.56;59.89;99628.92;125780;1099;102746;-80
2022/08/14 08:50:29;;;;;;;;;;;;;;;29.67;62.06;99626.50;125804;1099;104182;-80
2022/08/14 08:52:59;;;;;;;;;;;;;;;29.80;60.70;99615.87;125782;1099;104180;-80
2022/08/14 08:55:30;;;;;;;;;;;;;;;29.89;61.83;99625.29;125818;1099;102072;-80
2022/08/14 08:58:01;;;;;;;;;;;;;;;29.96;60.37;99625.79;125800;1099;104194;-79
2022/08/14 09:00:32;;;;;;;;;;;;;;;30.00;59.28;99620.11;125823;1099;101786;-80
2022/08/14 09:03:04;;;;;;;;;;;;;;;30.03;59.58;99617.23;125761;1099;104178;-80
2022/08/14 09:05:34;;;;;;;;;;;;;;;30.05;60.44;99620.70;125777;1099;102174;-80
2022/08/14 09:08:11;;;;;;;;;;;;;;;30.17;60.29;99624.52;125867;1099;104191;-80
2022/08/14 09:10:41;;;;;;;;;;;;;;;30.21;59.30;99612.53;125779;1099;104123;-80
2022/08/14 09:13:12;;;;;;;;;;;;;;;30.30;58.87;99603.86;125830;1098;102099;-79
2022/08/14 09:15:44;;;;;;;;;;;;;;;30.39;58.82;99607.89;125773;1099;104284;-80
2022/08/14 09:18:14;;;;;;;;;;;;;;;30.48;58.23;99606.47;125792;1099;104207;-80
2022/08/14 09:20:45;;;;;;;;;;;;;;;30.58;57.38;99596.80;126635;1098;104357;-80
2022/08/14 09:23:15;;;;;;;;;;;;;;;30.58;57.79;99598.64;125793;1098;104188;-80
2022/08/14 09:25:46;;;;;;;;;;;;;;;30.65;57.91;99599.98;125785;1099;104188;-80
2022/08/14 09:28:17;;;;;;;;;;;;;;;30.72;58.08;99605.91;125802;1099;117805;-80
2022/08/14 09:30:49;;;;;;;;;;;;;;;30.70;57.17;99587.05;125826;1099;104175;-80
2022/08/14 09:33:31;;;;;;;;;;;;;;;30.77;54.64;99591.09;125070;1099;104214;-80
2022/08/14 09:36:25;;;;;;;;;;;;;;;30.74;56.64;99590.44;125771;1099;104262;-80
2022/08/14 09:39:01;;;;;;;;;;;;;;;30.80;54.60;99585.49;125747;1099;104242;-80
2022/08/14 09:41:35;;;;;;;;;;;;;;;30.86;56.94;99580.67;125737;1099;104203;-80
2022/08/14 09:44:06;;;;;;;;;;;;;;;30.82;54.80;99575.45;126336;1098;104169;-80
2022/08/14 09:46:36;;;;;;;;;;;;;;;30.80;55.74;99574.66;125768;1099;104063;-80
2022/08/14 09:49:06;;;;;;;;;;;;;;;30.75;54.94;99576.80;125621;1099;104195;-80
2022/08/14 09:51:40;;;;;;;;;;;;;;;30.76;55.71;99575.84;125790;1098;104331;-80
2022/08/14 09:54:11;;;;;;;;;;;;;;;30.95;53.51;99575.53;125756;1099;102749;-80
2022/08/14 09:56:45;;;;;;;;;;;;;;;31.05;52.80;99573.13;125809;1099;104163;-80
2022/08/14 09:59:20;;;;;;;;;;;;;;;30.97;53.80;99565.50;125749;1098;104162;-80
2022/08/14 10:01:50;;;;;;;;;;;;;;;30.96;53.02;99573.69;125839;1099;104188;-80
2022/08/14 10:04:22;;;;;;;;;;;;;;;30.91;54.35;99578.54;125710;1098;104159;-79
2022/08/14 10:06:52;;;;;;;;;;;;;;;30.85;53.81;99568.95;125824;1098;104274;-80
2022/08/14 10:09:21;;;;;;;;;;;;;;;30.80;57.05;99571.95;125838;1099;102756;-79
2022/08/14 10:11:55;;;;;;;;;;;;;;;30.56;57.30;99562.66;125972;1098;102158;-78
2022/08/14 10:14:31;;;;;;;;;;;;;;;30.04;59.69;99569.40;124956;1099;104277;-79
2022/08/14 10:17:03;;;;;;;;;;;;;;;29.63;58.78;99575.41;125350;1098;102790;-79
2022/08/14 10:19:33;;;;;;;;;;;;;;;29.57;60.17;99579.32;126398;1098;102362;-79
2022/08/14 10:22:07;;;;;;;;;;;;;;;29.61;60.30;99569.20;124877;1099;104121;-78
2022/08/14 10:24:40;;;;;;;;;;;;;;;29.72;60.22;99575.73;125104;1099;104265;-77
2022/08/14 10:27:17;;;;;;;;;;;;;;;29.79;60.97;99565.42;125198;1099;104227;-77
2022/08/14 10:29:48;;;;;;;;;;;;;;;29.87;60.81;99567.70;124974;1099;104211;-78
2022/08/14 10:32:18;;;;;;;;;;;;;;;29.90;60.61;99567.52;125010;1099;102768;-79
2022/08/14 10:34:47;;;;;;;;;;;;;;;29.90;60.36;99554.89;124980;1098;104258;-79
2022/08/14 10:37:18;;;;;;;;;;;;;;;29.89;59.88;99560.39;125781;1099;102643;-79
2022/08/14 10:39:58;;;;;;;;;;;;;;;29.85;59.58;99553.41;125776;1099;104172;-79
2022/08/14 10:42:36;;;;;;;;;;;;;;;29.88;60.16;99550.52;125774;1098;102281;-79
2022/08/14 10:45:19;;;;;;;;;;;;;;;29.97;60.00;99541.00;125693;1099;102973;-79
2022/08/14 10:47:50;;;;;;;;;;;;;;;30.03;59.74;99525.27;125188;1099;104242;-80
2022/08/14 10:50:28;;;;;;;;;;;;;;;30.13;59.55;99528.27;125727;1099;103218;-80
2022/08/14 10:52:59;;;;;;;;;;;;;;;30.15;59.23;99518.22;125794;1099;104317;-80
2022/08/14 10:55:38;;;;;;;;;;;;;;;30.06;58.98;99508.86;125788;1099;102002;-80
2022/08/14 10:58:10;;;;;;;;;;;;;;;30.04;59.02;99505.35;125756;1099;102643;-79
2022/08/14 11:00:41;;;;;;;;;;;;;;;30.03;58.93;99498.22;125752;1098;104162;-80
2022/08/14 11:03:12;;;;;;;;;;;;;;;30.14;57.90;99488.56;125408;1099;104384;-80
2022/08/14 11:05:42;;;;;;;;;;;;;;;30.29;58.29;99488.50;125740;1099;104181;-80
2022/08/14 11:08:14;;;;;;;;;;;;;;;30.37;56.99;99488.02;125824;1099;102094;-80
2022/08/14 11:10:45;;;;;;;;;;;;;;;30.44;56.87;99488.53;125771;1099;104159;-80
2022/08/14 11:13:20;;;;;;;;;;;;;;;30.44;56.80;99481.27;125736;1099;104198;-80
2022/08/14 11:15:49;;;;;;;;;;;;;;;30.51;56.19;99489.00;125921;1099;104159;-79
2022/08/14 11:18:20;;;;;;;;;;;;;;;30.63;54.60;99493.64;125718;1098;104198;-80
2022/08/14 11:20:53;;;;;;;;;;;;;;;30.73;54.37;99496.63;125820;1099;104172;-80
2022/08/14 11:23:26;;;;;;;;;;;;;;;30.84;54.72;99488.70;125817;1099;104304;-80
2022/08/14 11:25:57;;;;;;;;;;;;;;;30.95;53.46;99493.42;125700;1099;102934;-80
2022/08/14 11:28:28;;;;;;;;;;;;;;;31.08;53.16;99498.94;126599;1098;104290;-79
2022/08/14 11:31:00;;;;;;;;;;;;;;;31.09;51.13;99506.96;125778;1098;102737;-80
2022/08/14 11:33:31;;;;;;;;;;;;;;;31.15;51.44;99498.44;125844;1099;102737;-80
2022/08/14 11:36:04;;;;;;;;;;;;;;;31.18;50.43;99491.92;125757;1099;104240;-80
2022/08/14 11:38:37;;;;;;;;;;;;;;;31.31;51.04;99487.44;125773;1098;104157;-80
2022/08/14 11:41:08;;;;;;;;;;;;;;;31.34;50.52;99476.39;125710;1099;104243;-80
2022/08/14 11:43:40;;;;;;;;;;;;;;;31.30;49.73;99466.72;124869;1098;102785;-79
2022/08/14 11:46:12;;;;;;;;;;;;;;;31.30;50.25;99468.57;124896;1099;104188;-79
2022/08/14 11:48:50;;;;;;;;;;;;;;;31.21;50.90;99458.34;125760;1098;104166;-80
2022/08/14 11:51:24;;;;;;;;;;;;;;;31.12;48.00;99465.23;124335;1099;104232;-80
2022/08/14 11:53:56;;;;;;;;;;;;;;;30.97;48.38;99459.86;125087;1099;104159;-80
2022/08/14 11:56:34;;;;;;;;;;;;;;;30.88;50.50;99460.43;125075;1099;104351;-79
2022/08/14 11:59:06;;;;;;;;;;;;;;;30.75;50.35;99454.95;125167;1099;102444;-79
2022/08/14 12:01:35;;;;;;;;;;;;;;;30.58;47.53;99456.03;125067;1099;104329;-79
2022/08/14 12:04:12;;;;;;;;;;;;;;;30.48;49.22;99452.20;125033;1099;102864;-79
2022/08/14 12:06:51;;;;;;;;;;;;;;;30.38;49.14;99446.45;124386;1102;104256;-79
2022/08/14 12:09:30;;;;;;;;;;;;;;;30.30;48.75;99436.11;124419;1099;104243;-79
2022/08/14 12:11:59;;;;;;;;;;;;;;;30.22;47.25;99432.16;124338;1099;104331;-79
2022/08/14 12:14:29;;;;;;;;;;;;;;;30.16;48.68;99432.55;125049;1099;104185;-80
2022/08/14 12:17:02;;;;;;;;;;;;;;;30.12;48.37;99434.55;124395;1099;104364;-79
2022/08/14 12:19:43;;;;;;;;;;;;;;;30.08;48.48;99433.02;124447;1099;104357;-80
2022/08/14 12:22:12;;;;;;;;;;;;;;;30.04;46.44;99436.87;125231;1099;111968;-80
2022/08/14 12:24:44;;;;;;;;;;;;;;;29.98;47.50;99429.14;125791;1098;104163;-80
2022/08/14 12:27:14;;;;;;;;;;;;;;;29.94;46.81;99429.33;125808;1099;104166;-80
2022/08/14 12:29:52;;;;;;;;;;;;;;;29.92;47.69;99430.41;125795;1099;104172;-80
2022/08/14 12:32:24;;;;;;;;;;;;;;;29.86;47.17;99420.83;125833;1099;104158;-80
2022/08/14 12:34:57;;;;;;;;;;;;;;;29.80;47.13;99428.45;125919;1099;104165;-80
2022/08/14 12:37:31;;;;;;;;;;;;;;;29.75;46.56;99445.78;125792;1099;101769;-80
2022/08/14 12:40:11;;;;;;;;;;;;;;;29.72;46.89;99437.00;125790;1099;101949;-80
2022/08/14 12:42:43;;;;;;;;;;;;;;;29.66;45.44;99440.07;125763;1099;106993;-80
2022/08/14 12:45:13;;;;;;;;;;;;;;;29.64;45.30;99437.47;125853;1099;104172;-79
2022/08/14 12:47:43;;;;;;;;;;;;;;;29.64;46.14;99436.57;125753;1099;104191;-79
2022/08/14 12:50:13;;;;;;;;;;;;;;;29.64;46.34;99432.06;125782;1099;104220;-80
2022/08/14 12:52:44;;;;;;;;;;;;;;;29.68;46.29;99438.14;125786;1099;104255;-80
2022/08/14 12:55:16;;;;;;;;;;;;;;;29.70;46.36;99442.50;124948;1099;102698;-79
2022/08/14 12:57:47;;;;;;;;;;;;;;;29.74;46.09;99449.44;125784;1099;104169;-79
2022/08/14 13:00:18;;;;;;;;;;;;;;;29.78;46.32;99471.77;125794;1099;104162;-79
2022/08/14 13:02:50;;;;;;;;;;;;;;;29.80;46.11;99469.02;125728;1099;102865;-80